Time;durP1;ratioP1;P1;durP2;ratioP2;P2;SDS_P1;SDS_P2;PMS_P1;PMS_P2;Temp;Humidity;BMP_temperature;BMP_pressure;BME280_temperature;BME280_humidity;BME280_pressure;Samples;Min_cycle;Max_cycle;Signal;HPM_P1;HPM_P2
2022/07/12 00:00:48;;;;;;;;;;;;;;;23.94;100.00;99780.22;5053408;28;19963;-40
2022/07/12 00:03:14;;;;;;;;;;;;;;;24.15;100.00;99778.63;5054753;28;19916;-40
2022/07/12 00:05:39;;;;;;;;;;;;;;;24.49;100.00;99772.56;5051422;28;19916;-40
2022/07/12 00:08:06;;;;;;;;;;;;;;;24.33;100.00;99770.25;5054922;28;20237;-40
2022/07/12 00:10:31;;;;;;;;;;;;;;;24.50;100.00;99783.00;5053148;28;19927;-40
2022/07/12 00:12:56;;;;;;;;;;;;;;;24.51;100.00;99783.84;5053669;28;19924;-40
2022/07/12 00:15:21;;;;;;;;;;;;;;;24.35;100.00;99773.63;5054703;28;19909;-40
2022/07/12 00:17:47;;;;;;;;;;;;;;;24.26;100.00;99775.16;5055140;28;19975;-40
2022/07/12 00:20:12;;;;;;;;;;;;;;;24.26;100.00;99775.16;5050816;28;19942;-40
2022/07/12 00:22:37;;;;;;;;;;;;;;;24.20;100.00;99775.66;5054485;28;19920;-40
2022/07/12 00:25:03;;;;;;;;;;;;;;;24.16;100.00;99767.13;5054312;28;20054;-40
2022/07/12 00:27:28;;;;;;;;;;;;;;;23.89;100.00;99766.59;5052879;28;19927;-40
2022/07/12 00:29:54;;;;;;;;;;;;;;;24.07;100.00;99769.63;5053128;28;19916;-40
2022/07/12 00:32:19;;;;;;;;;;;;;;;24.24;100.00;99766.53;5056406;28;19916;-40
2022/07/12 00:34:44;;;;;;;;;;;;;;;24.20;100.00;99765.94;5056395;28;19920;-40
2022/07/12 00:37:09;;;;;;;;;;;;;;;24.08;100.00;99764.22;5057357;28;19920;-40
2022/07/12 00:39:35;;;;;;;;;;;;;;;24.15;100.00;99754.09;5056940;28;20025;-41
2022/07/12 00:42:00;;;;;;;;;;;;;;;23.95;100.00;99753.00;5057504;28;19917;-40
2022/07/12 00:44:26;;;;;;;;;;;;;;;23.33;100.00;99752.25;5057306;28;19969;-40
2022/07/12 00:46:51;;;;;;;;;;;;;;;23.44;100.00;99756.72;5057835;28;19928;-40
2022/07/12 00:49:17;;;;;;;;;;;;;;;23.24;100.00;99759.94;5054304;28;19970;-40
2022/07/12 00:51:45;;;;;;;;;;;;;;;23.61;100.00;99752.03;5057480;28;19917;-40
2022/07/12 00:54:10;;;;;;;;;;;;;;;23.63;100.00;99748.31;5057442;28;19943;-39
2022/07/12 00:56:36;;;;;;;;;;;;;;;23.60;100.00;99753.78;5057194;28;20662;-40
2022/07/12 00:59:01;;;;;;;;;;;;;;;23.69;100.00;99754.91;5056566;28;19920;-40
2022/07/12 01:01:26;;;;;;;;;;;;;;;23.75;100.00;99754.47;5056682;28;19931;-40
2022/07/12 01:03:52;;;;;;;;;;;;;;;23.62;100.00;99751.88;5056494;28;19927;-40
2022/07/12 01:06:17;;;;;;;;;;;;;;;23.62;100.00;99754.50;5056405;28;20976;-40
2022/07/12 01:08:42;;;;;;;;;;;;;;;23.75;100.00;99752.69;5054771;28;19923;-40
2022/07/12 01:11:08;;;;;;;;;;;;;;;23.32;100.00;99753.19;5054282;28;19920;-40
2022/07/12 01:13:33;;;;;;;;;;;;;;;23.06;100.00;99757.72;5055486;28;21106;-40
2022/07/12 01:15:59;;;;;;;;;;;;;;;23.26;100.00;99758.88;5055073;28;19922;-40
2022/07/12 01:18:26;;;;;;;;;;;;;;;22.87;100.00;99760.78;5055534;28;19921;-39
2022/07/12 01:20:51;;;;;;;;;;;;;;;23.20;100.00;99764.59;5054416;28;20011;-40
2022/07/12 01:23:17;;;;;;;;;;;;;;;23.51;100.00;99757.94;5056131;28;19926;-40
2022/07/12 01:25:42;;;;;;;;;;;;;;;23.29;100.00;99753.44;5054747;28;19981;-39
2022/07/12 01:31:19;;;;;;;;;;;;;;;23.43;100.00;99749.78;5055459;28;19923;-40
2022/07/12 01:33:44;;;;;;;;;;;;;;;23.44;100.00;99742.72;5055439;28;19916;-40
2022/07/12 01:36:09;;;;;;;;;;;;;;;23.36;100.00;99741.50;5053987;28;19916;-41
2022/07/12 01:38:35;;;;;;;;;;;;;;;23.56;100.00;99744.44;5055343;28;19927;-40
2022/07/12 01:41:00;;;;;;;;;;;;;;;23.52;100.00;99751.72;5055185;28;19916;-40
2022/07/12 01:43:26;;;;;;;;;;;;;;;23.58;100.00;99743.41;5055048;28;19916;-40
2022/07/12 01:45:51;;;;;;;;;;;;;;;23.08;100.00;99747.06;5053836;28;20017;-40
2022/07/12 01:48:16;;;;;;;;;;;;;;;23.11;100.00;99744.25;5055638;28;20023;-40
2022/07/12 01:50:42;;;;;;;;;;;;;;;23.17;100.00;99743.78;5054228;28;19969;-40
2022/07/12 01:53:07;;;;;;;;;;;;;;;23.42;100.00;99742.84;5055098;28;19926;-40
2022/07/12 01:55:32;;;;;;;;;;;;;;;23.46;100.00;99740.84;5055522;28;19916;-40
2022/07/12 01:57:58;;;;;;;;;;;;;;;23.37;100.00;99739.72;5055813;28;20002;-40
2022/07/12 02:00:23;;;;;;;;;;;;;;;23.43;100.00;99733.19;5053983;28;19928;-40
2022/07/12 02:02:48;;;;;;;;;;;;;;;23.33;100.00;99741.75;5055214;28;19916;-40
2022/07/12 02:05:14;;;;;;;;;;;;;;;23.12;100.00;99735.41;5053958;28;19970;-40
2022/07/12 02:07:39;;;;;;;;;;;;;;;22.87;100.00;99731.88;5055805;28;20702;-40
2022/07/12 02:10:05;;;;;;;;;;;;;;;22.43;100.00;99730.59;5054330;28;19917;-40
2022/07/12 02:12:30;;;;;;;;;;;;;;;21.81;100.00;99733.09;5055309;28;19999;-40
2022/07/12 02:14:55;;;;;;;;;;;;;;;22.00;100.00;99728.28;5053407;28;20428;-40
2022/07/12 02:17:21;;;;;;;;;;;;;;;22.35;100.00;99727.66;5055099;28;20625;-40
2022/07/12 02:19:46;;;;;;;;;;;;;;;22.16;100.00;99724.63;5054274;28;19916;-40
2022/07/12 02:22:11;;;;;;;;;;;;;;;22.04;100.00;99724.50;5055290;28;19916;-40
2022/07/12 02:24:36;;;;;;;;;;;;;;;22.37;100.00;99724.94;5054232;28;19927;-40
2022/07/12 02:27:02;;;;;;;;;;;;;;;22.05;100.00;99718.31;5055836;28;19917;-40
2022/07/12 02:29:27;;;;;;;;;;;;;;;22.04;100.00;99724.50;5054200;28;20526;-40
2022/07/12 02:31:53;;;;;;;;;;;;;;;21.64;100.00;99732.41;5054204;28;19920;-40
2022/07/12 02:34:18;;;;;;;;;;;;;;;21.60;100.00;99723.09;5055416;28;19923;-40
2022/07/12 02:36:44;;;;;;;;;;;;;;;21.78;100.00;99720.16;5055144;28;19973;-40
2022/07/12 02:39:11;;;;;;;;;;;;;;;21.88;100.00;99718.63;5055286;28;20046;-40
2022/07/12 02:41:36;;;;;;;;;;;;;;;22.20;100.00;99737.41;5054403;28;19920;-40
2022/07/12 02:44:01;;;;;;;;;;;;;;;22.27;100.00;99737.88;5055163;28;20526;-40
2022/07/12 02:46:27;;;;;;;;;;;;;;;22.29;100.00;99733.34;5054412;28;20007;-40
2022/07/12 02:48:52;;;;;;;;;;;;;;;22.33;100.00;99737.47;5054657;28;19916;-40
2022/07/12 02:51:17;;;;;;;;;;;;;;;22.48;100.00;99746.03;5054722;28;20004;-40
2022/07/12 02:53:43;;;;;;;;;;;;;;;22.32;100.00;99741.84;5054586;28;19912;-40
2022/07/12 02:56:08;;;;;;;;;;;;;;;22.33;100.00;99733.03;5053741;28;19916;-40
2022/07/12 02:58:34;;;;;;;;;;;;;;;22.25;100.00;99737.13;5053867;28;20362;-40
2022/07/12 03:00:59;;;;;;;;;;;;;;;22.10;100.00;99752.09;5053608;28;20034;-40
2022/07/12 03:03:24;;;;;;;;;;;;;;;22.25;100.00;99750.25;5054962;28;20282;-40
2022/07/12 03:05:50;;;;;;;;;;;;;;;22.28;100.00;99750.91;5052931;28;20007;-40
2022/07/12 03:08:15;;;;;;;;;;;;;;;22.26;100.00;99751.91;5052932;28;20541;-40
2022/07/12 03:10:41;;;;;;;;;;;;;;;22.15;100.00;99755.25;5052851;28;19916;-40
2022/07/12 03:13:06;;;;;;;;;;;;;;;22.27;100.00;99758.88;5054318;28;20338;-40
2022/07/12 03:15:31;;;;;;;;;;;;;;;21.96;100.00;99755.66;5053958;28;19951;-40
2022/07/12 03:17:57;;;;;;;;;;;;;;;22.02;100.00;99760.50;5054091;28;19932;-40
2022/07/12 03:20:22;;;;;;;;;;;;;;;22.02;100.00;99760.50;5054357;28;19986;-40
2022/07/12 03:22:50;;;;;;;;;;;;;;;22.11;100.00;99759.03;5054416;28;19923;-40
2022/07/12 03:25:15;;;;;;;;;;;;;;;22.02;100.00;99765.75;5054339;28;19926;-40
2022/07/12 03:27:40;;;;;;;;;;;;;;;21.97;100.00;99770.47;5054925;28;19926;-40
2022/07/12 03:30:06;;;;;;;;;;;;;;;21.92;100.00;99764.69;5054184;28;19916;-40
2022/07/12 03:32:31;;;;;;;;;;;;;;;22.07;100.00;99768.88;5053207;28;20277;-40
2022/07/12 03:34:56;;;;;;;;;;;;;;;22.03;100.00;99762.19;5054341;28;19921;-40
2022/07/12 03:37:22;;;;;;;;;;;;;;;22.16;100.00;99763.97;5053937;28;19955;-40
2022/07/12 03:39:47;;;;;;;;;;;;;;;22.01;100.00;99757.97;5054104;28;19987;-40
2022/07/12 03:42:12;;;;;;;;;;;;;;;22.06;100.00;99774.25;5054002;28;19916;-40
2022/07/12 03:44:37;;;;;;;;;;;;;;;22.06;100.00;99766.38;5053518;28;19916;-40
2022/07/12 03:47:03;;;;;;;;;;;;;;;22.06;100.00;99766.38;5054507;28;20512;-40
2022/07/12 03:49:28;;;;;;;;;;;;;;;22.12;100.00;99776.44;5054292;28;19997;-40
2022/07/12 03:51:53;;;;;;;;;;;;;;;22.07;100.00;99774.13;5054821;28;19927;-40
2022/07/12 03:54:19;;;;;;;;;;;;;;;22.01;100.00;99771.94;5054509;28;19995;-40
2022/07/12 03:59:28;;;;;;;;;;;;;;;22.25;100.00;99766.00;5054063;28;19950;-40
2022/07/12 04:01:53;;;;;;;;;;;;;;;22.29;100.00;99770.09;5054054;28;20365;-40
2022/07/12 04:04:18;;;;;;;;;;;;;;;22.00;100.00;99772.88;5053527;28;20395;-40
2022/07/12 04:06:44;;;;;;;;;;;;;;;21.99;100.00;99773.00;5056196;28;19919;-40
2022/07/12 04:09:09;;;;;;;;;;;;;;;22.06;100.00;99771.63;5056994;28;20361;-40
2022/07/12 04:11:34;;;;;;;;;;;;;;;22.17;100.00;99773.50;5057867;28;19917;-40
2022/07/12 04:13:59;;;;;;;;;;;;;;;21.90;100.00;99784.94;5057409;28;19920;-40
2022/07/12 04:16:25;;;;;;;;;;;;;;;21.59;100.00;99789.56;5057911;28;19923;-40
2022/07/12 04:18:50;;;;;;;;;;;;;;;22.20;100.00;99787.28;5056933;28;19923;-40
2022/07/12 04:21:15;;;;;;;;;;;;;;;22.29;100.00;99781.44;5056263;28;19955;-39
2022/07/12 04:23:40;;;;;;;;;;;;;;;22.64;100.00;99779.94;5057435;28;19955;-40
2022/07/12 04:26:06;;;;;;;;;;;;;;;22.86;100.00;99788.00;5057830;28;19925;-40
2022/07/12 04:28:31;;;;;;;;;;;;;;;22.89;100.00;99784.31;5056558;28;19912;-40
2022/07/12 04:30:56;;;;;;;;;;;;;;;23.00;100.00;99787.03;5056471;28;20616;-40
2022/07/12 04:33:22;;;;;;;;;;;;;;;23.05;100.00;99781.47;5056597;28;20338;-40
2022/07/12 04:35:47;;;;;;;;;;;;;;;23.30;100.00;99786.63;5056883;28;19974;-40
2022/07/12 04:38:12;;;;;;;;;;;;;;;23.38;100.00;99792.19;5056820;28;19916;-40
2022/07/12 04:40:37;;;;;;;;;;;;;;;23.44;100.00;99792.69;5056698;28;19916;-40
2022/07/12 04:43:03;;;;;;;;;;;;;;;23.70;100.00;99782.88;5057401;28;19923;-40
2022/07/12 04:45:28;;;;;;;;;;;;;;;23.46;100.00;99788.16;5056809;28;19916;-40
2022/07/12 04:47:53;;;;;;;;;;;;;;;23.54;100.00;99784.00;5056870;28;20004;-40
2022/07/12 04:50:18;;;;;;;;;;;;;;;23.65;100.00;99785.88;5056186;28;19923;-40
2022/07/12 04:52:43;;;;;;;;;;;;;;;23.79;100.00;99785.69;5055054;28;19925;-39
2022/07/12 04:55:09;;;;;;;;;;;;;;;23.74;100.00;99781.69;5046097;28;19924;-39
2022/07/12 04:57:34;;;;;;;;;;;;;;;23.65;100.00;99785.00;5054954;28;20118;-39
2022/07/12 05:00:00;;;;;;;;;;;;;;;23.75;100.00;99775.53;5055801;28;19920;-39
2022/07/12 05:02:26;;;;;;;;;;;;;;;24.10;100.00;99786.00;5056041;28;19967;-39
2022/07/12 05:04:51;;;;;;;;;;;;;;;24.72;100.00;99782.16;5055045;28;19974;-40
2022/07/12 05:07:16;;;;;;;;;;;;;;;24.97;100.00;99775.78;5055592;28;20007;-39
2022/07/12 05:09:42;;;;;;;;;;;;;;;24.95;100.00;99777.72;5055669;28;20535;-39
2022/07/12 05:12:07;;;;;;;;;;;;;;;24.92;100.00;99777.94;5056166;28;20368;-39
2022/07/12 05:14:32;;;;;;;;;;;;;;;25.04;100.00;99776.97;5056041;28;19920;-39
2022/07/12 05:16:57;;;;;;;;;;;;;;;25.20;100.00;99786.31;5054052;28;19921;-39
2022/07/12 05:19:23;;;;;;;;;;;;;;;25.21;100.00;99794.09;5055901;28;19922;-39
2022/07/12 05:21:48;;;;;;;;;;;;;;;24.58;100.00;99806.09;5055045;28;19917;-40
2022/07/12 05:24:13;;;;;;;;;;;;;;;24.43;100.00;99813.38;5056151;28;19931;-40
2022/07/12 05:26:39;;;;;;;;;;;;;;;24.76;100.00;99819.63;5055345;28;19952;-40
2022/07/12 05:29:04;;;;;;;;;;;;;;;24.55;100.00;99822.16;5053828;28;19920;-40
2022/07/12 05:31:29;;;;;;;;;;;;;;;24.76;100.00;99825.72;5054690;28;19917;-39
2022/07/12 05:33:54;;;;;;;;;;;;;;;24.95;100.00;99824.28;5055550;28;19920;-39
2022/07/12 05:36:20;;;;;;;;;;;;;;;25.54;100.00;99820.50;5055159;28;19989;-39
2022/07/12 05:38:45;;;;;;;;;;;;;;;25.75;100.00;99816.13;5055153;28;20011;-40
2022/07/12 05:41:10;;;;;;;;;;;;;;;25.96;100.00;99815.34;5054435;28;19917;-40
2022/07/12 05:43:36;;;;;;;;;;;;;;;25.54;100.00;99823.97;5054966;28;20747;-40
2022/07/12 05:46:01;;;;;;;;;;;;;;;25.37;100.00;99827.97;5054820;28;19920;-40
2022/07/12 05:48:26;;;;;;;;;;;;;;;25.67;100.00;99821.19;5054748;28;19955;-40
2022/07/12 05:50:51;;;;;;;;;;;;;;;25.71;100.00;99817.34;5054780;28;19977;-40
2022/07/12 05:53:23;;;;;;;;;;;;;;;26.02;100.00;99814.81;5054589;28;19966;-40
2022/07/12 05:55:49;;;;;;;;;;;;;;;25.98;100.00;99813.38;5055019;28;20084;-40
2022/07/12 05:58:14;;;;;;;;;;;;;;;26.29;100.00;99812.47;5054834;28;19978;-40
2022/07/12 06:00:39;;;;;;;;;;;;;;;26.62;100.00;99812.44;5053776;28;19924;-39
2022/07/12 06:03:04;;;;;;;;;;;;;;;24.80;100.00;99815.81;5054604;28;19916;-40
2022/07/12 06:05:30;;;;;;;;;;;;;;;25.57;100.00;99809.72;5053531;28;19916;-40
2022/07/12 06:07:55;;;;;;;;;;;;;;;25.37;100.00;99812.16;5054770;28;19917;-40
2022/07/12 06:10:20;;;;;;;;;;;;;;;26.15;100.00;99812.81;5054013;28;20433;-40
2022/07/12 06:12:45;;;;;;;;;;;;;;;26.45;100.00;99800.63;5054216;28;19916;-39
2022/07/12 06:15:11;;;;;;;;;;;;;;;25.50;100.00;99808.50;5054686;28;19920;-40
2022/07/12 06:17:36;;;;;;;;;;;;;;;26.38;100.00;99810.03;5054352;28;19928;-40
2022/07/12 06:20:01;;;;;;;;;;;;;;;25.57;100.00;99821.09;5053748;28;19916;-40
2022/07/12 06:22:27;;;;;;;;;;;;;;;26.72;100.00;99817.75;5054404;28;19927;-39
2022/07/12 06:24:52;;;;;;;;;;;;;;;27.27;100.00;99813.75;5052981;28;19966;-40
2022/07/12 06:27:17;;;;;;;;;;;;;;;27.60;100.00;99818.81;5054026;28;19917;-39
2022/07/12 06:29:47;;;;;;;;;;;;;;;27.55;100.00;99821.88;5052489;28;19917;-40
2022/07/12 06:32:13;;;;;;;;;;;;;;;27.92;100.00;99824.72;5054375;28;19974;-40
2022/07/12 06:34:38;;;;;;;;;;;;;;;25.98;100.00;99829.22;5053902;28;20417;-40
2022/07/12 06:37:03;;;;;;;;;;;;;;;26.60;100.00;99836.34;5054175;28;19921;-39
2022/07/12 06:39:28;;;;;;;;;;;;;;;26.97;100.00;99827.03;5053318;28;19962;-39
2022/07/12 06:41:54;;;;;;;;;;;;;;;26.97;100.00;99834.97;5053314;28;19920;-39
2022/07/12 06:44:19;;;;;;;;;;;;;;;27.33;100.00;99822.97;5053438;28;20010;-40
2022/07/12 06:46:45;;;;;;;;;;;;;;;26.83;100.00;99830.88;5053789;28;19923;-40
2022/07/12 06:49:10;;;;;;;;;;;;;;;27.36;100.00;99821.84;5052982;28;19916;-40
2022/07/12 06:51:38;;;;;;;;;;;;;;;26.49;100.00;99825.81;5053270;28;19916;-40
2022/07/12 06:54:03;;;;;;;;;;;;;;;27.32;100.00;99816.00;5053391;28;20129;-39
2022/07/12 06:56:29;;;;;;;;;;;;;;;27.03;100.00;99827.31;5053928;28;20436;-40
2022/07/12 06:58:54;;;;;;;;;;;;;;;26.22;100.00;99829.81;5052677;28;20841;-40
2022/07/12 07:01:19;;;;;;;;;;;;;;;27.42;100.00;99816.88;5053598;28;20345;-40
2022/07/12 07:03:44;;;;;;;;;;;;;;;27.82;100.00;99818.53;5053047;28;20051;-40
2022/07/12 07:06:10;;;;;;;;;;;;;;;27.61;100.00;99821.31;5051316;28;19916;-39
2022/07/12 07:08:35;;;;;;;;;;;;;;;27.63;100.00;99824.66;5053107;28;19921;-40
2022/07/12 07:11:00;;;;;;;;;;;;;;;28.45;100.00;99825.19;5052828;28;20455;-40
2022/07/12 07:13:25;;;;;;;;;;;;;;;28.06;100.00;99825.25;5052672;28;19920;-40
2022/07/12 07:15:50;;;;;;;;;;;;;;;28.23;100.00;99827.16;5053567;28;19920;-40
2022/07/12 07:18:16;;;;;;;;;;;;;;;27.84;100.00;99832.50;5053510;28;19920;-40
2022/07/12 07:20:41;;;;;;;;;;;;;;;28.22;100.00;99830.81;5052514;28;19923;-40
2022/07/12 07:23:07;;;;;;;;;;;;;;;28.34;100.00;99834.94;5052271;28;19917;-40
2022/07/12 07:25:32;;;;;;;;;;;;;;;27.46;100.00;99842.06;5053188;28;19917;-40
2022/07/12 07:27:57;;;;;;;;;;;;;;;28.26;100.00;99848.09;5053427;28;19921;-40
2022/07/12 07:33:06;;;;;;;;;;;;;;;29.00;100.00;99841.16;5052607;28;19974;-40
2022/07/12 07:35:31;;;;;;;;;;;;;;;29.47;94.60;99838.41;5051494;28;19916;-40
2022/07/12 07:37:57;;;;;;;;;;;;;;;29.80;91.95;99836.09;5051720;28;20275;-40
2022/07/12 07:40:22;;;;;;;;;;;;;;;29.18;92.39;99855.34;5052235;28;20162;-40
2022/07/12 07:42:47;;;;;;;;;;;;;;;27.00;100.00;99869.88;5054860;28;19920;-40
2022/07/12 07:45:12;;;;;;;;;;;;;;;27.90;100.00;99858.44;5056952;28;19999;-40
2022/07/12 07:47:48;;;;;;;;;;;;;;;28.73;97.32;99857.88;5056681;28;19956;-40
2022/07/12 07:50:13;;;;;;;;;;;;;;;29.53;92.22;99853.72;5055856;28;19935;-40
2022/07/12 07:52:38;;;;;;;;;;;;;;;27.21;100.00;99863.72;5054606;28;19917;-40
2022/07/12 07:55:04;;;;;;;;;;;;;;;27.19;100.00;99863.00;5057173;28;20077;-40
2022/07/12 07:57:29;;;;;;;;;;;;;;;28.02;99.90;99860.94;5055798;28;19990;-40
2022/07/12 07:59:54;;;;;;;;;;;;;;;29.43;98.55;99852.97;5056280;28;19962;-40
2022/07/12 08:02:19;;;;;;;;;;;;;;;29.35;95.27;99851.06;5056558;28;19924;-39
2022/07/12 08:04:45;;;;;;;;;;;;;;;29.26;98.60;99849.28;5055632;28;19916;-40
2022/07/12 08:07:10;;;;;;;;;;;;;;;29.60;90.69;99838.88;5056587;28;19920;-40
2022/07/12 08:09:35;;;;;;;;;;;;;;;30.42;85.16;99838.75;5055833;28;19912;-40
2022/07/12 08:12:00;;;;;;;;;;;;;;;30.24;84.93;99833.44;5056163;28;20376;-40
2022/07/12 08:14:25;;;;;;;;;;;;;;;30.60;84.66;99836.84;5056719;28;19966;-39
2022/07/12 08:16:51;;;;;;;;;;;;;;;31.18;83.53;99829.13;5054753;28;19925;-39
2022/07/12 08:19:16;;;;;;;;;;;;;;;31.05;82.38;99826.94;5055425;28;19924;-40
2022/07/12 08:21:41;;;;;;;;;;;;;;;30.46;82.64;99824.16;5055481;28;20346;-40
2022/07/12 08:24:06;;;;;;;;;;;;;;;30.81;85.72;99822.31;5056109;28;20726;-40
2022/07/12 08:26:32;;;;;;;;;;;;;;;29.53;86.38;99826.34;5056281;28;19994;-40
2022/07/12 08:28:57;;;;;;;;;;;;;;;29.27;87.81;99826.25;5055888;28;19927;-40
2022/07/12 08:31:22;;;;;;;;;;;;;;;28.84;89.46;99830.38;5055981;28;19917;-40
2022/07/12 08:33:47;;;;;;;;;;;;;;;30.67;85.03;99826.41;5055721;28;19971;-40
2022/07/12 08:36:13;;;;;;;;;;;;;;;30.32;81.61;99832.72;5055753;28;20876;-39
2022/07/12 08:38:38;;;;;;;;;;;;;;;31.13;81.25;99832.28;5056270;28;20683;-40
2022/07/12 08:41:04;;;;;;;;;;;;;;;30.68;82.21;99835.22;5053195;28;19924;-39
2022/07/12 08:43:31;;;;;;;;;;;;;;;31.53;78.98;99827.25;5055731;28;19916;-40
2022/07/12 08:46:01;;;;;;;;;;;;;;;31.36;78.67;99831.69;5055703;28;20778;-39
2022/07/12 08:48:26;;;;;;;;;;;;;;;30.71;72.51;99832.25;5055396;28;19922;-39
2022/07/12 08:51:09;;;;;;;;;;;;;;;30.91;75.06;99836.38;5055860;28;19916;-40
2022/07/12 08:53:34;;;;;;;;;;;;;;;31.80;69.96;99826.94;5055623;28;19995;-40
2022/07/12 08:56:00;;;;;;;;;;;;;;;30.98;71.47;99839.22;5054396;28;20038;-39
2022/07/12 08:58:25;;;;;;;;;;;;;;;32.29;71.78;99832.25;5054629;28;19932;-40
2022/07/12 09:00:51;;;;;;;;;;;;;;;32.15;71.17;99824.13;5053046;28;19920;-40
2022/07/12 09:03:16;;;;;;;;;;;;;;;31.62;74.20;99827.09;5055489;28;19924;-39
2022/07/12 09:05:49;;;;;;;;;;;;;;;32.09;70.72;99826.47;5054567;28;20836;-39
2022/07/12 09:08:14;;;;;;;;;;;;;;;32.54;72.02;99823.41;5054065;28;19920;-40
2022/07/12 09:10:48;;;;;;;;;;;;;;;32.29;71.31;99832.25;5054203;28;20373;-40
2022/07/12 09:13:14;;;;;;;;;;;;;;;31.47;75.35;99834.06;5054269;28;20344;-39
2022/07/12 09:15:39;;;;;;;;;;;;;;;32.42;67.57;99831.75;5053819;28;19916;-40
2022/07/12 09:18:12;;;;;;;;;;;;;;;31.27;76.55;99823.69;5054174;28;19920;-40
2022/07/12 09:20:38;;;;;;;;;;;;;;;31.21;76.21;99823.50;5053066;28;20320;-40
2022/07/12 09:23:04;;;;;;;;;;;;;;;30.53;72.40;99829.69;5053259;28;19962;-40
2022/07/12 09:25:30;;;;;;;;;;;;;;;29.40;78.28;99840.00;5054334;28;20317;-40
2022/07/12 09:27:58;;;;;;;;;;;;;;;31.53;73.71;99832.59;5053878;28;19916;-39
2022/07/12 09:30:27;;;;;;;;;;;;;;;32.50;62.98;99831.75;5051535;28;20377;-39
2022/07/12 09:38:21;;;;;;;;;;;;;;;32.95;67.35;99837.44;5052695;28;19943;-40
2022/07/12 09:40:47;;;;;;;;;;;;;;;33.46;61.66;99837.00;5052254;28;19916;-40
2022/07/12 09:43:12;;;;;;;;;;;;;;;33.72;54.92;99832.19;5052209;28;19927;-40
2022/07/12 09:45:38;;;;;;;;;;;;;;;33.88;55.65;99830.41;5053649;28;19981;-40
2022/07/12 09:48:03;;;;;;;;;;;;;;;33.22;57.91;99836.16;5051896;28;19923;-40
2022/07/12 09:50:29;;;;;;;;;;;;;;;32.43;55.10;99836.09;5051121;28;19923;-40
2022/07/12 09:52:54;;;;;;;;;;;;;;;33.16;54.70;99828.84;5053457;28;20562;-40
2022/07/12 09:55:19;;;;;;;;;;;;;;;33.45;57.14;99838.03;5051848;28;19916;-40
2022/07/12 09:57:45;;;;;;;;;;;;;;;35.22;52.66;99825.97;5052057;28;19921;-39
2022/07/12 10:00:11;;;;;;;;;;;;;;;33.96;49.29;99822.28;5052454;28;19920;-40
2022/07/12 10:02:37;;;;;;;;;;;;;;;33.50;52.00;99830.31;5052776;28;19923;-40
2022/07/12 10:05:04;;;;;;;;;;;;;;;33.34;56.76;99823.22;5051673;28;19916;-40
2022/07/12 10:07:31;;;;;;;;;;;;;;;33.54;60.62;99823.59;5051453;28;22332;-40
2022/07/12 10:09:57;;;;;;;;;;;;;;;35.16;56.10;99826.72;5050341;28;20177;-40
2022/07/12 10:12:22;;;;;;;;;;;;;;;35.83;53.31;99819.38;5052890;28;20163;-40
2022/07/12 10:15:07;;;;;;;;;;;;;;;34.66;44.40;99829.16;5050958;28;19921;-40
2022/07/12 10:17:32;;;;;;;;;;;;;;;34.69;51.38;99833.31;5052382;28;19925;-40
2022/07/12 10:20:13;;;;;;;;;;;;;;;34.96;51.58;99835.31;5050892;28;20018;-40
2022/07/12 10:22:38;;;;;;;;;;;;;;;34.80;53.38;99829.34;5052713;28;19974;-40
2022/07/12 10:25:05;;;;;;;;;;;;;;;32.53;53.93;99840.44;5052118;28;20162;-40
2022/07/12 10:27:31;;;;;;;;;;;;;;;34.50;54.53;99830.13;5052408;28;19955;-40
2022/07/12 10:30:11;;;;;;;;;;;;;;;33.30;57.73;99822.78;5051452;28;20046;-40
2022/07/12 10:32:37;;;;;;;;;;;;;;;35.48;50.36;99816.53;5051961;28;21133;-40
2022/07/12 10:35:05;;;;;;;;;;;;;;;35.66;49.30;99816.97;5050852;28;19916;-40
2022/07/12 10:37:30;;;;;;;;;;;;;;;34.30;46.35;99815.66;5051872;28;20019;-40
2022/07/12 10:40:12;;;;;;;;;;;;;;;33.64;55.38;99821.59;5051510;28;19917;-40
2022/07/12 10:42:37;;;;;;;;;;;;;;;33.99;48.52;99815.78;5051777;28;19977;-40
2022/07/12 10:45:09;;;;;;;;;;;;;;;34.64;46.69;99814.31;5052469;28;19916;-40
2022/07/12 10:47:52;;;;;;;;;;;;;;;35.72;48.01;99802.78;5052147;28;19981;-40
2022/07/12 10:50:17;;;;;;;;;;;;;;;34.85;46.08;99811.72;5051567;28;19920;-40
2022/07/12 10:52:43;;;;;;;;;;;;;;;35.64;44.78;99805.59;5051481;28;19923;-40
2022/07/12 10:55:11;;;;;;;;;;;;;;;35.16;42.52;99803.44;5051723;28;20304;-40
2022/07/12 10:57:46;;;;;;;;;;;;;;;35.59;45.62;99802.66;5051956;28;20013;-40
2022/07/12 11:00:12;;;;;;;;;;;;;;;34.48;46.17;99799.25;5051797;28;19926;-40
2022/07/12 11:02:38;;;;;;;;;;;;;;;35.29;45.94;99794.72;5051777;28;19931;-40
2022/07/12 11:05:03;;;;;;;;;;;;;;;34.77;45.33;99798.44;5051347;28;19921;-40
2022/07/12 11:07:28;;;;;;;;;;;;;;;34.50;42.90;99792.69;5051871;28;19970;-40
2022/07/12 11:09:54;;;;;;;;;;;;;;;33.02;44.91;99786.88;5050261;28;20177;-40
2022/07/12 11:12:19;;;;;;;;;;;;;;;35.10;49.29;99781.91;5052029;28;19923;-40
2022/07/12 11:14:45;;;;;;;;;;;;;;;34.41;43.80;99775.09;5052001;28;19972;-40
2022/07/12 11:17:10;;;;;;;;;;;;;;;33.28;50.02;99795.41;5050777;28;20005;-40
2022/07/12 11:19:35;;;;;;;;;;;;;;;33.22;50.24;99788.09;5051094;28;19916;-40
2022/07/12 11:22:00;;;;;;;;;;;;;;;34.84;45.10;99794.00;5050547;28;19928;-40
2022/07/12 11:24:26;;;;;;;;;;;;;;;35.98;42.78;99785.25;5052059;28;20019;-40
2022/07/12 11:26:52;;;;;;;;;;;;;;;36.53;40.14;99783.56;5052170;28;20336;-40
2022/07/12 11:29:17;;;;;;;;;;;;;;;36.23;42.45;99778.44;5051640;28;19921;-40
2022/07/12 11:31:43;;;;;;;;;;;;;;;35.51;39.62;99774.13;5051137;28;19923;-40
2022/07/12 11:34:18;;;;;;;;;;;;;;;34.62;41.04;99770.84;5050793;28;19979;-40
2022/07/12 11:36:43;;;;;;;;;;;;;;;35.94;40.72;99762.53;5051662;28;19916;-40
2022/07/12 11:39:09;;;;;;;;;;;;;;;36.11;39.41;99758.56;5049895;28;20437;-41
2022/07/12 11:41:34;;;;;;;;;;;;;;;37.65;38.28;99749.19;5051772;28;20278;-40
2022/07/12 11:43:59;;;;;;;;;;;;;;;38.05;34.30;99743.81;5051647;28;20011;-40
2022/07/12 11:46:24;;;;;;;;;;;;;;;38.51;37.17;99752.78;5051897;28;20075;-40
2022/07/12 11:48:50;;;;;;;;;;;;;;;36.81;42.02;99755.81;5051481;28;20321;-41
2022/07/12 11:51:15;;;;;;;;;;;;;;;37.61;38.49;99747.94;5049708;28;19923;-40
2022/07/12 11:53:40;;;;;;;;;;;;;;;37.23;36.85;99751.22;5051449;28;19916;-41
2022/07/12 11:56:06;;;;;;;;;;;;;;;37.53;38.79;99750.81;5051702;28;20003;-41
2022/07/12 11:58:38;;;;;;;;;;;;;;;35.92;38.08;99748.50;5051054;28;20189;-40
2022/07/12 12:01:04;;;;;;;;;;;;;;;36.69;38.23;99752.06;5050894;28;20382;-41
2022/07/12 12:03:30;;;;;;;;;;;;;;;36.08;36.90;99745.50;5051124;28;19916;-40
2022/07/12 12:05:56;;;;;;;;;;;;;;;38.52;36.96;99744.50;5050515;28;19923;-40
2022/07/12 12:08:21;;;;;;;;;;;;;;;39.33;37.79;99746.53;5051639;28;19916;-41
2022/07/12 12:10:57;;;;;;;;;;;;;;;37.03;39.81;99759.19;5051264;28;19916;-41
2022/07/12 12:13:22;;;;;;;;;;;;;;;37.94;42.25;99760.53;5051666;28;19928;-42
2022/07/12 12:15:51;;;;;;;;;;;;;;;39.19;34.41;99744.16;5051651;28;20704;-41
2022/07/12 12:18:17;;;;;;;;;;;;;;;38.55;33.21;99744.09;5052591;28;20198;-42
2022/07/12 12:20:42;;;;;;;;;;;;;;;35.54;35.14;99735.41;5049225;28;19916;-41
2022/07/12 12:23:17;;;;;;;;;;;;;;;36.39;36.70;99738.91;5051803;28;20541;-40
2022/07/12 12:25:42;;;;;;;;;;;;;;;38.10;33.91;99730.53;5052018;28;19917;-41
2022/07/12 12:28:08;;;;;;;;;;;;;;;39.93;34.23;99740.66;5054766;28;19987;-40
2022/07/12 12:30:33;;;;;;;;;;;;;;;40.87;30.08;99723.38;5054339;28;19962;-40
2022/07/12 12:33:00;;;;;;;;;;;;;;;40.23;32.35;99734.53;5053763;28;19923;-41
2022/07/12 12:35:31;;;;;;;;;;;;;;;39.35;30.16;99727.47;5055435;28;20265;-41
2022/07/12 12:38:00;;;;;;;;;;;;;;;39.56;32.35;99723.56;5054347;28;19927;-41
2022/07/12 12:40:26;;;;;;;;;;;;;;;36.53;33.32;99729.06;5054695;28;19916;-41
2022/07/12 12:42:51;;;;;;;;;;;;;;;34.92;40.41;99737.69;5054428;28;19920;-40
2022/07/12 12:45:17;;;;;;;;;;;;;;;38.53;37.54;99723.81;5055231;28;19916;-42
2022/07/12 12:47:56;;;;;;;;;;;;;;;41.01;36.22;99724.81;5054487;28;20415;-42